< Typhoon 200917 2009 Season Typhoon 200919 >
Typhoon 200918 (MELOR)
General InformationTrack Information on Google MapsDetailed Wind InformationAccess Analytics MapList of All Images || NewsDisaster Info.WeblogTrackbackTyphoon FrontTwiphoonTyphoon ImaginationResourceGoogle EarthGE AnimationAtom FeedGeoJSON
Detalied Best Track (Time Zone = UTC)
Year Month Day Hour Lat. Long. Pressure (hPa) Wind (kt) Class Image Chart
2009 9 29 06 9.6 160.4 1002 0 2 Image Chart
2009 9 29 12 10.6 157.4 998 0 2 Image Chart
2009 9 29 18 10.9 156.8 998 0 2 Image Chart
2009 9 30 00 11.5 156.2 996 35 3 Image Chart
2009 9 30 06 12.6 154.8 992 40 3 Image Chart
2009 9 30 12 12.9 154.0 990 45 3 Image Chart
2009 9 30 18 13.0 153.5 980 55 4 Image Chart
2009 10 1 00 13.6 153.2 975 65 5 Image Chart
2009 10 1 06 13.9 152.5 955 75 5 Image Chart
2009 10 1 12 14.1 152.0 950 80 5 Image Chart
2009 10 1 18 14.0 151.4 940 90 5 Image Chart
2009 10 2 00 14.2 151.1 935 95 5 Image Chart
2009 10 2 06 14.5 150.6 935 95 5 Image Chart
2009 10 2 12 15.0 149.9 935 95 5 Image Chart
2009 10 2 18 15.4 148.8 935 95 5 Image Chart
2009 10 3 00 15.6 147.9 935 95 5 Image Chart
2009 10 3 06 16.2 146.8 940 90 5 Image Chart
2009 10 3 12 16.5 145.3 935 95 5 Image Chart
2009 10 3 18 16.5 143.7 925 100 5 Image Chart
2009 10 4 00 16.6 142.3 920 105 5 Image Chart
2009 10 4 06 17.0 140.9 910 110 5 Image Chart
2009 10 4 12 17.5 139.4 910 110 5 Image Chart
2009 10 4 18 17.9 137.7 910 110 5 Image Chart
2009 10 5 00 18.5 136.3 915 105 5 Image Chart
2009 10 5 06 19.2 134.8 915 105 5 Image Chart
2009 10 5 12 20.0 133.6 930 95 5 Image Chart
2009 10 5 18 21.2 132.5 935 90 5 Image Chart
2009 10 6 00 22.5 131.7 935 90 5 Image Chart
2009 10 6 06 23.9 130.9 940 85 5 Image Chart
2009 10 6 09 24.5 130.8 940 85 5 Image Chart
2009 10 6 12 25.1 130.7 940 85 5 Image Chart
2009 10 6 15 25.7 130.5 940 85 5 Image Chart
2009 10 6 18 26.5 130.8 940 85 5 Image Chart
2009 10 6 21 27.3 131.0 940 85 5 Image Chart
2009 10 7 00 28.2 131.5 940 85 5 Image Chart
2009 10 7 03 29.0 131.8 945 80 5 Image Chart
2009 10 7 06 29.9 132.5 945 80 5 Image Chart
2009 10 7 09 30.8 133.2 945 80 5 Image Chart
2009 10 7 12 31.6 134.3 945 80 5 Image Chart
2009 10 7 15 32.9 135.6 950 75 5 Image Chart
2009 10 7 18 34.0 136.6 955 75 5 Image Chart
2009 10 7 19 34.2 136.9 955 75 5 Image Chart
2009 10 7 20 34.6 136.9 955 75 5 Image Chart
2009 10 7 21 35.1 137.2 965 65 5 Image Chart
2009 10 8 00 36.1 138.8 975 60 4 Image Chart
2009 10 8 03 37.1 139.7 975 60 4 Image Chart
2009 10 8 06 38.4 141.2 984 55 4 Image Chart
2009 10 8 09 39.0 142.3 980 55 4 Image Chart
2009 10 8 12 40.0 143.6 980 0 6 Image Chart
2009 10 8 18 41.3 145.6 980 0 6 Image Chart
2009 10 9 00 42.2 147.7 984 0 6 Image Chart
2009 10 9 06 43.2 150.0 984 0 6 Image Chart
2009 10 9 12 44.2 152.4 984 0 6 Image Chart
2009 10 9 18 45.1 156.0 982 0 6 Image Chart
2009 10 10 00 46.0 159.2 982 0 6 Image Chart
2009 10 10 06 46.7 163.5 982 0 6 Image Chart
2009 10 10 12 46.7 167.4 984 0 6 Image Chart
2009 10 10 18 47.0 171.9 988 0 6 Image Chart
2009 10 11 00 47.2 177.1 988 0 6 Image Chart
Japan Meteorological Agency Best Track Data | Correction Date : 2010-03-26
< Typhoon 200917 2009 Season Typhoon 200919 >

Help